Time;durP1;ratioP1;P1;durP2;ratioP2;P2;SDS_P1;SDS_P2;PMS_P1;PMS_P2;Temp;Humidity;BMP_temperature;BMP_pressure;BME280_temperature;BME280_humidity;BME280_pressure;Samples;Min_cycle;Max_cycle;Signal;HPM_P1;HPM_P2
2022/11/28 00:00:58;;;;;;;19.33;9.05;;;;;;;8.30;65.34;101634.44;5058393;28;20032;-75
2022/11/28 00:03:24;;;;;;;14.77;8.55;;;;;;;8.34;65.63;101629.78;5052413;28;20021;-76
2022/11/28 00:05:50;;;;;;;11.45;7.97;;;;;;;8.44;65.90;101631.00;5053662;28;20515;-75
2022/11/28 00:08:16;;;;;;;15.95;7.40;;;;;;;8.36;65.51;101618.03;5053203;28;20037;-74
2022/11/28 00:10:41;;;;;;;13.55;7.70;;;;;;;8.38;65.61;101628.69;5053146;28;20502;-75
2022/11/28 00:13:07;;;;;;;13.45;7.35;;;;;;;8.34;65.01;101619.06;5053042;28;20029;-76
2022/11/28 00:15:32;;;;;;;11.40;8.85;;;;;;;8.40;65.64;101635.69;5052890;28;20021;-74
2022/11/28 00:17:58;;;;;;;12.50;7.35;;;;;;;8.20;65.61;101591.19;5053020;28;20032;-75
2022/11/28 00:20:23;;;;;;;14.48;8.85;;;;;;;8.31;65.28;101627.28;5052752;28;20025;-76
2022/11/28 00:22:49;;;;;;;18.77;8.52;;;;;;;8.38;65.38;101632.19;5053086;28;20483;-74
2022/11/28 00:25:14;;;;;;;13.13;8.18;;;;;;;8.21;65.62;101632.25;5052909;28;20103;-75
2022/11/28 00:27:40;;;;;;;14.23;8.57;;;;;;;8.22;65.75;101636.69;5053268;28;20036;-76
2022/11/28 00:30:06;;;;;;;10.98;8.02;;;;;;;8.03;66.45;101612.72;5052837;28;20083;-76
2022/11/28 00:32:31;;;;;;;17.23;7.97;;;;;;;8.10;65.98;101615.91;5054055;28;20058;-75
2022/11/28 00:34:57;;;;;;;16.98;8.25;;;;;;;7.96;66.62;101613.13;5056249;28;20076;-76
2022/11/28 00:37:22;;;;;;;13.02;8.27;;;;;;;7.96;66.37;101613.13;5060576;28;20025;-77
2022/11/28 00:39:48;;;;;;;15.73;8.15;;;;;;;7.97;66.89;101607.69;5062806;28;20047;-75
2022/11/28 00:42:14;;;;;;;14.82;8.35;;;;;;;7.90;66.71;101621.47;5051555;28;20033;-76
2022/11/28 00:44:40;;;;;;;14.38;8.50;;;;;;;7.80;67.04;101612.25;5052994;28;20021;-75
2022/11/28 00:47:05;;;;;;;13.50;8.32;;;;;;;7.90;67.39;101616.13;5052948;28;20155;-76
2022/11/28 00:49:31;;;;;;;14.10;8.25;;;;;;;7.91;67.25;101618.75;5052687;28;20118;-75
2022/11/28 00:51:56;;;;;;;15.82;8.95;;;;;;;7.92;66.91;101612.41;5052434;28;20067;-74
2022/11/28 00:54:21;;;;;;;12.40;7.53;;;;;;;7.88;67.40;101604.66;5052508;28;20036;-75
2022/11/28 00:56:47;;;;;;;14.45;8.02;;;;;;;7.90;67.37;101603.59;5052360;28;20400;-75
2022/11/28 00:59:12;;;;;;;14.85;8.13;;;;;;;7.78;67.78;101609.63;5052458;28;20090;-76
2022/11/28 01:01:42;;;;;;;14.75;7.97;;;;;;;7.44;68.10;101566.88;5052456;28;20025;-75
2022/11/28 01:04:09;;;;;;;18.58;9.20;;;;;;;7.66;68.47;101600.47;5052026;28;20078;-76
2022/11/28 01:06:41;;;;;;;12.20;8.40;;;;;;;7.66;68.90;101594.22;5052115;28;20653;-75
2022/11/28 01:09:10;;;;;;;12.73;8.13;;;;;;;7.68;68.59;101601.22;5051987;28;20067;-74
2022/11/28 01:11:38;;;;;;;14.93;7.85;;;;;;;7.67;68.87;101582.59;5052232;28;20082;-75
2022/11/28 01:14:03;;;;;;;16.83;7.72;;;;;;;7.43;68.35;101549.94;5051537;28;20158;-76
2022/11/28 01:16:29;;;;;;;14.90;8.75;;;;;;;7.65;68.66;101571.94;5052110;28;20021;-75
2022/11/28 01:18:55;;;;;;;12.25;7.20;;;;;;;7.77;68.70;101573.06;5051935;28;20029;-74
2022/11/28 01:21:20;;;;;;;11.18;6.82;;;;;;;7.81;68.30;101577.31;5051774;28;20024;-74
2022/11/28 01:23:46;;;;;;;12.90;7.47;;;;;;;7.75;68.63;101576.78;5059565;28;20028;-75
2022/11/28 01:26:20;;;;;;;14.20;7.25;;;;;;;7.85;68.91;101572.69;5053548;28;20045;-76
2022/11/28 01:28:47;;;;;;;16.50;8.02;;;;;;;7.90;68.19;101571.47;5052230;28;20025;-75
2022/11/28 01:31:15;;;;;;;10.98;7.03;;;;;;;7.86;67.85;101563.69;5049871;28;20041;-76
2022/11/28 01:33:41;;;;;;;10.93;6.30;;;;;;;7.53;68.27;101521.75;5052325;28;20036;-74
2022/11/28 01:36:07;;;;;;;11.55;7.30;;;;;;;7.25;68.43;101475.19;5051797;28;20036;-75
2022/11/28 01:38:33;;;;;;;12.60;7.70;;;;;;;7.76;68.57;101552.63;5051736;28;20033;-75
2022/11/28 01:40:59;;;;;;;13.65;7.32;;;;;;;7.65;68.75;101555.88;5053508;28;20029;-75
2022/11/28 01:43:25;;;;;;;15.15;7.63;;;;;;;7.47;68.27;101515.84;5059610;28;20029;-76
2022/11/28 01:45:51;;;;;;;14.68;7.50;;;;;;;7.64;68.77;101543.44;5058564;28;20017;-76
2022/11/28 01:48:22;;;;;;;21.75;7.35;;;;;;;7.65;68.27;101537.13;5052480;28;20041;-74
2022/11/28 01:50:51;;;;;;;19.30;7.38;;;;;;;7.50;68.70;101497.81;5051815;28;20122;-76
2022/11/28 01:53:17;;;;;;;13.75;7.15;;;;;;;7.66;68.15;101535.31;5051178;28;20102;-75
2022/11/28 01:55:51;;;;;;;14.45;8.50;;;;;;;7.53;68.55;101513.72;5051552;28;20032;-75
2022/11/28 01:58:17;;;;;;;16.55;7.82;;;;;;;7.51;68.49;101520.09;5051631;28;20056;-76
2022/11/28 02:00:43;;;;;;;11.10;6.88;;;;;;;7.37;68.63;101486.06;5051691;28;20036;-77
2022/11/28 02:03:24;;;;;;;10.80;7.20;;;;;;;7.46;69.22;101512.31;5052240;28;20044;-77
2022/11/28 02:05:51;;;;;;;12.57;8.03;;;;;;;7.39;69.16;101494.88;5051845;28;20112;-78
2022/11/28 02:08:16;;;;;;;25.40;7.63;;;;;;;7.38;69.02;101503.84;5051348;28;20055;-76
2022/11/28 02:10:51;;;;;;;12.13;7.90;;;;;;;7.43;69.19;101507.13;5051233;28;20037;-75
2022/11/28 02:13:22;;;;;;;11.80;7.40;;;;;;;7.43;69.22;101507.13;5051320;28;20021;-75
2022/11/28 02:16:03;;;;;;;15.13;8.53;;;;;;;7.38;69.64;101511.88;5051536;28;20031;-77
2022/11/28 02:18:54;;;;;;;13.95;7.32;;;;;;;7.47;69.43;101508.69;5050772;28;20472;-76
2022/11/28 02:22:10;;;;;;;11.80;7.35;;;;;;;7.51;69.02;101515.63;5051190;28;20021;-76
2022/11/28 02:24:56;;;;;;;14.02;9.55;;;;;;;7.33;69.24;101499.69;5007819;28;20498;-75
2022/11/28 02:27:37;;;;;;;17.40;8.57;;;;;;;7.17;69.43;101472.91;5008395;28;20160;-76
2022/11/28 02:30:09;;;;;;;12.73;8.77;;;;;;;7.39;69.68;101510.94;5008383;28;20037;-75
2022/11/28 02:32:47;;;;;;;12.63;9.07;;;;;;;7.38;69.78;101502.97;5008770;28;20034;-76
2022/11/28 02:35:31;;;;;;;13.65;8.82;;;;;;;7.42;69.68;101510.78;5008217;28;20045;-76
2022/11/28 02:38:33;;;;;;;16.42;9.27;;;;;;;7.36;69.91;101516.44;5008286;28;20129;-75
2022/11/28 02:41:14;;;;;;;12.32;8.45;;;;;;;7.43;69.73;101499.09;5008452;28;20507;-76
2022/11/28 02:44:02;;;;;;;12.45;8.02;;;;;;;7.40;69.74;101509.97;5008507;28;20026;-76
2022/11/28 02:46:44;;;;;;;13.07;8.75;;;;;;;7.45;69.44;101507.94;4949874;28;20082;-75
2022/11/28 02:49:33;;;;;;;14.65;8.68;;;;;;;7.54;68.78;101520.81;4956851;28;20142;-76
2022/11/28 02:52:20;;;;;;;16.50;8.75;;;;;;;7.47;69.32;101511.38;4954578;28;20122;-76
2022/11/28 02:54:49;;;;;;;29.33;10.65;;;;;;;7.25;69.04;101467.97;4950290;28;20046;-76
2022/11/28 02:57:15;;;;;;;29.27;10.02;;;;;;;7.51;68.83;101510.28;4950023;28;20186;-75
2022/11/28 02:59:40;;;;;;;23.83;9.80;;;;;;;7.49;69.68;101513.97;4965313;28;20034;-75
2022/11/28 03:02:22;;;;;;;24.48;10.30;;;;;;;7.38;69.74;101509.19;4988441;28;20045;-76
2022/11/28 03:05:23;;;;;;;25.50;11.10;;;;;;;7.29;70.32;101522.19;4988662;28;20065;-76
2022/11/28 03:08:20;;;;;;;21.58;11.70;;;;;;;7.28;70.16;101513.31;4949949;28;20035;-75
2022/11/28 03:10:50;;;;;;;13.10;10.00;;;;;;;7.09;70.54;101516.09;4949242;28;20043;-75
2022/11/28 03:13:48;;;;;;;17.13;10.98;;;;;;;7.06;71.38;101507.38;4949729;28;20031;-76
2022/11/28 03:16:25;;;;;;;26.52;12.52;;;;;;;7.02;71.33;101521.84;4949575;28;20047;-75
2022/11/28 03:19:15;;;;;;;18.67;11.20;;;;;;;6.95;72.17;101510.63;4949350;28;20043;-75
2022/11/28 03:21:55;;;;;;;18.90;12.15;;;;;;;7.02;71.57;101522.72;4949700;28;20035;-76
2022/11/28 03:24:35;;;;;;;18.15;11.63;;;;;;;7.02;70.87;101521.84;4999361;28;20358;-76
2022/11/28 03:27:49;;;;;;;18.85;10.82;;;;;;;7.02;71.29;101512.03;5007934;28;20054;-76
2022/11/28 03:30:24;;;;;;;19.25;11.88;;;;;;;6.87;71.38;101501.28;4914717;29;20039;-77
2022/11/28 03:32:55;;;;;;;19.98;12.25;;;;;;;6.89;71.68;101504.72;4930174;29;20059;-75
2022/11/28 03:35:24;;;;;;;23.92;11.00;;;;;;;6.92;71.46;101513.44;4930241;29;20048;-75
2022/11/28 03:37:56;;;;;;;21.40;11.73;;;;;;;6.95;71.21;101507.06;4929836;29;20756;-75
2022/11/28 03:40:29;;;;;;;25.52;11.20;;;;;;;6.75;71.84;101476.03;4930229;29;20032;-76
2022/11/28 03:43:02;;;;;;;22.20;11.15;;;;;;;6.98;71.62;101498.88;4930359;29;20035;-74
2022/11/28 03:45:33;;;;;;;18.60;10.75;;;;;;;6.93;71.42;101495.59;4968331;28;20151;-76
2022/11/28 03:48:07;;;;;;;20.00;10.70;;;;;;;6.95;71.12;101496.38;4969042;28;20129;-75
2022/11/28 03:50:40;;;;;;;29.60;12.27;;;;;;;6.97;71.59;101508.72;4968315;28;20150;-76
2022/11/28 03:53:12;;;;;;;18.58;10.27;;;;;;;6.96;71.85;101492.75;4968989;28;20167;-75
2022/11/28 03:55:44;;;;;;;16.58;9.88;;;;;;;7.03;71.36;101502.19;4977166;28;20042;-75
2022/11/28 03:58:20;;;;;;;19.35;10.35;;;;;;;7.03;71.10;101511.06;4974806;28;20415;-78
2022/11/28 04:00:57;;;;;;;19.35;11.30;;;;;;;7.01;71.24;101498.72;5008721;28;20124;-76
2022/11/28 04:03:36;;;;;;;23.33;10.65;;;;;;;7.02;71.50;101511.16;5049549;28;20495;-76
2022/11/28 04:06:27;;;;;;;21.25;11.45;;;;;;;7.00;71.76;101508.56;5050227;28;20025;-74
2022/11/28 04:09:17;;;;;;;16.10;10.32;;;;;;;6.96;71.85;101512.34;5011218;28;20045;-76
2022/11/28 04:12:15;;;;;;;16.60;10.05;;;;;;;6.90;71.92;101517.16;5017773;28;20077;-75
2022/11/28 04:14:48;;;;;;;18.60;11.07;;;;;;;6.75;72.17;101493.88;5018303;28;20038;-74
2022/11/28 04:17:29;;;;;;;17.75;12.40;;;;;;;6.90;72.17;101523.38;5014316;28;20045;-75
2022/11/28 04:20:04;;;;;;;19.20;10.40;;;;;;;6.55;72.46;101482.41;5014974;28;20044;-76
2022/11/28 04:22:49;;;;;;;21.52;12.02;;;;;;;6.75;72.92;101507.25;5011755;28;20034;-76
2022/11/28 04:25:18;;;;;;;19.17;10.90;;;;;;;6.78;72.76;101512.44;5007325;28;20060;-77
2022/11/28 04:27:48;;;;;;;19.73;11.65;;;;;;;6.84;72.42;101513.00;5007742;28;20041;-75
2022/11/28 04:30:14;;;;;;;22.40;10.90;;;;;;;6.77;72.51;101516.91;5007496;28;20610;-74
2022/11/28 04:32:50;;;;;;;17.60;10.85;;;;;;;6.26;72.69;101421.59;5006794;28;20045;-76
2022/11/28 04:35:25;;;;;;;20.27;12.43;;;;;;;6.79;72.71;101506.16;4991878;28;20616;-76
2022/11/28 04:37:52;;;;;;;24.10;12.23;;;;;;;6.80;72.94;101518.56;5007631;28;20060;-77
2022/11/28 04:40:21;;;;;;;19.65;10.68;;;;;;;6.71;73.02;101506.53;5006856;28;20078;-76
2022/11/28 04:42:52;;;;;;;17.00;10.63;;;;;;;6.81;72.74;101513.16;5006999;28;20034;-76
2022/11/28 04:45:26;;;;;;;18.65;10.70;;;;;;;6.71;72.95;101495.84;5016010;28;20038;-75
2022/11/28 04:47:53;;;;;;;22.90;12.93;;;;;;;6.74;72.70;101494.81;5047819;28;20115;-75
2022/11/28 04:50:22;;;;;;;26.63;13.02;;;;;;;6.71;72.69;101500.31;5052582;28;20095;-75
2022/11/28 04:52:59;;;;;;;17.90;10.40;;;;;;;6.73;72.89;101499.28;5052970;28;20028;-76
2022/11/28 04:55:28;;;;;;;20.27;10.98;;;;;;;6.48;72.68;101467.63;5052645;28;20037;-77
2022/11/28 04:58:20;;;;;;;27.83;13.75;;;;;;;6.78;72.43;101515.13;5052613;28;20047;-75
2022/11/28 05:00:48;;;;;;;27.45;12.05;;;;;;;6.64;72.93;101512.25;5057915;28;20033;-75
2022/11/28 05:03:15;;;;;;;20.58;11.68;;;;;;;6.65;73.28;101511.34;5057270;28;20032;-75
2022/11/28 05:05:50;;;;;;;35.17;15.18;;;;;;;6.70;72.55;101503.94;5059756;28;20051;-75
2022/11/28 05:08:17;;;;;;;17.13;10.43;;;;;;;6.68;72.79;101508.50;5052355;28;20061;-75
2022/11/28 05:10:42;;;;;;;22.85;11.38;;;;;;;6.51;72.63;101499.53;5050654;28;20032;-74
2022/11/28 05:13:08;;;;;;;24.90;11.82;;;;;;;6.70;72.70;101525.31;5051739;28;20759;-76
2022/11/28 05:15:33;;;;;;;20.98;12.80;;;;;;;6.55;72.35;101495.75;5051816;28;20553;-76
2022/11/28 05:17:59;;;;;;;26.80;13.13;;;;;;;6.54;72.33;101515.41;5050665;28;20120;-75
2022/11/28 05:20:25;;;;;;;26.27;11.63;;;;;;;6.54;72.37;101517.25;5050856;28;20434;-76
2022/11/28 05:22:50;;;;;;;22.27;12.00;;;;;;;6.48;72.50;101520.22;5050640;28;20133;-77
2022/11/28 05:25:16;;;;;;;21.38;11.82;;;;;;;6.48;72.30;101521.06;5050984;28;20479;-76
2022/11/28 05:27:42;;;;;;;32.75;13.40;;;;;;;6.50;72.46;101505.84;5053015;28;20464;-76
2022/11/28 05:30:09;;;;;;;19.88;11.40;;;;;;;6.47;72.53;101513.13;5054192;28;20025;-76
2022/11/28 05:32:35;;;;;;;21.90;11.40;;;;;;;6.44;72.33;101513.28;5051904;28;20460;-77
2022/11/28 05:35:01;;;;;;;25.55;12.98;;;;;;;6.39;72.22;101501.97;5051307;28;20044;-75
2022/11/28 05:37:26;;;;;;;20.55;13.25;;;;;;;6.46;72.09;101512.25;5052226;28;20108;-75
2022/11/28 05:39:52;;;;;;;22.77;13.98;;;;;;;6.42;72.09;101510.69;5057193;28;20434;-75
2022/11/28 05:42:18;;;;;;;20.85;13.05;;;;;;;6.11;72.53;101462.41;5054007;28;20070;-80
2022/11/28 05:44:43;;;;;;;28.15;14.23;;;;;;;5.92;72.01;101429.56;5053025;28;20032;-79
2022/11/28 05:47:09;;;;;;;24.83;12.15;;;;;;;6.40;71.87;101522.38;5052373;28;20028;-79
2022/11/28 05:49:34;;;;;;;26.70;13.27;;;;;;;6.46;71.53;101525.63;5051946;28;20052;-76
2022/11/28 05:52:01;;;;;;;22.55;11.27;;;;;;;6.25;70.95;101485.75;5052031;28;20045;-78
2022/11/28 05:54:26;;;;;;;21.85;12.38;;;;;;;5.91;71.11;101425.16;5051865;28;20389;-80
2022/11/28 05:56:51;;;;;;;23.98;12.18;;;;;;;6.47;70.90;101532.72;5051538;28;20107;-74
2022/11/28 05:59:17;;;;;;;30.73;12.23;;;;;;;6.40;71.25;101528.59;5051424;28;20119;-75
2022/11/28 06:01:42;;;;;;;25.02;12.10;;;;;;;6.44;71.04;101523.97;5051425;28;20484;-74
2022/11/28 06:04:08;;;;;;;20.33;10.82;;;;;;;6.44;71.13;101519.50;5051235;28;20036;-75
2022/11/28 06:06:34;;;;;;;44.75;12.30;;;;;;;6.49;70.90;101517.47;5052331;28;20103;-76
2022/11/28 06:09:00;;;;;;;26.65;11.93;;;;;;;6.55;70.56;101526.97;5055399;28;20033;-75
2022/11/28 06:11:28;;;;;;;25.90;12.32;;;;;;;6.50;70.56;101526.34;5054040;28;20468;-75
2022/11/28 06:13:54;;;;;;;20.08;11.50;;;;;;;6.50;70.42;101524.53;5051269;28;20035;-76
2022/11/28 06:16:23;;;;;;;26.60;12.90;;;;;;;6.19;70.63;101484.25;5050913;28;20024;-76
2022/11/28 06:18:52;;;;;;;29.52;13.57;;;;;;;6.44;70.65;101519.50;5050813;28;20029;-75
2022/11/28 06:21:18;;;;;;;21.08;11.73;;;;;;;6.46;70.81;101520.28;5050853;28;20133;-75
2022/11/28 06:23:43;;;;;;;33.50;14.13;;;;;;;6.49;70.49;101517.47;5031654;28;20146;-75
2022/11/28 06:26:12;;;;;;;32.92;11.88;;;;;;;6.55;70.31;101522.50;5050260;28;20116;-74
2022/11/28 06:28:38;;;;;;;26.15;13.10;;;;;;;6.52;70.54;101528.00;5050374;28;20636;-74
2022/11/28 06:31:08;;;;;;;23.40;11.07;;;;;;;6.48;70.79;101504.19;5050591;28;20033;-76
2022/11/28 06:33:33;;;;;;;27.23;10.48;;;;;;;6.53;70.34;101507.47;5049260;28;20535;-76
2022/11/28 06:36:04;;;;;;;30.10;12.63;;;;;;;6.60;70.23;101502.69;5050305;28;20017;-75
2022/11/28 06:38:30;;;;;;;25.92;13.00;;;;;;;6.66;69.84;101513.06;5050131;28;20484;-76
2022/11/28 06:40:58;;;;;;;23.10;13.25;;;;;;;6.68;69.76;101511.19;5050367;28;20021;-77
2022/11/28 06:43:23;;;;;;;23.05;10.77;;;;;;;6.47;70.11;101455.22;5050199;28;20477;-75
2022/11/28 06:45:49;;;;;;;24.88;12.70;;;;;;;6.79;69.57;101508.84;5049840;28;20035;-77
2022/11/28 06:48:14;;;;;;;17.70;11.48;;;;;;;6.70;69.39;101496.78;5050598;28;20031;-75
2022/11/28 06:50:39;;;;;;;30.45;14.80;;;;;;;6.69;69.49;101507.56;5050425;28;20041;-76
2022/11/28 06:53:05;;;;;;;24.50;10.70;;;;;;;6.54;69.24;101490.50;5049963;28;20041;-76
2022/11/28 06:55:31;;;;;;;20.35;10.40;;;;;;;6.80;69.26;101510.53;5050483;28;20025;-76
2022/11/28 06:57:56;;;;;;;27.25;10.85;;;;;;;6.74;69.37;101505.50;5050050;28;20025;-74
2022/11/28 07:00:22;;;;;;;31.58;12.88;;;;;;;6.65;68.76;101473.91;5050409;28;20021;-76
2022/11/28 07:02:47;;;;;;;22.02;11.00;;;;;;;6.77;68.98;101500.00;5050770;28;20876;-74
2022/11/28 07:05:15;;;;;;;22.13;11.15;;;;;;;6.87;68.59;101495.91;5052400;28;20024;-75
2022/11/28 07:07:41;;;;;;;28.88;11.30;;;;;;;6.81;68.84;101493.56;5051306;28;20106;-75
2022/11/28 07:10:07;;;;;;;28.05;12.00;;;;;;;6.91;67.97;101497.50;5050872;28;20112;-75
2022/11/28 07:12:32;;;;;;;19.63;10.40;;;;;;;6.93;68.15;101496.47;5051422;28;20053;-76
2022/11/28 07:14:58;;;;;;;39.95;11.80;;;;;;;6.80;68.15;101470.44;5053774;28;20141;-75
2022/11/28 07:17:23;;;;;;;24.92;10.18;;;;;;;6.98;67.90;101493.53;5054281;28;20047;-75
2022/11/28 07:19:49;;;;;;;25.38;11.18;;;;;;;7.04;67.49;101482.50;5048366;28;20531;-75
2022/11/28 07:22:14;;;;;;;22.10;10.82;;;;;;;7.06;67.08;101483.31;5050001;28;20040;-75
2022/11/28 07:24:39;;;;;;;28.30;10.63;;;;;;;7.06;67.52;101486.00;5049561;28;20025;-75
2022/11/28 07:27:05;;;;;;;18.50;10.77;;;;;;;7.00;67.46;101464.94;5049366;28;20033;-75
2022/11/28 07:29:35;;;;;;;23.73;13.48;;;;;;;7.18;67.45;101471.09;5049447;28;20025;-75
2022/11/28 07:32:02;;;;;;;19.60;11.93;;;;;;;7.24;67.06;101460.94;5049578;28;20415;-76
2022/11/28 07:34:27;;;;;;;30.30;16.88;;;;;;;7.30;66.93;101463.28;5049904;28;20104;-78
2022/11/28 07:36:53;;;;;;;22.67;11.73;;;;;;;7.18;67.02;101458.59;5048292;28;20156;-78
2022/11/28 07:39:18;;;;;;;26.35;13.35;;;;;;;7.21;66.38;101463.78;5049835;28;20041;-77
2022/11/28 07:41:44;;;;;;;22.88;10.75;;;;;;;7.19;66.09;101454.94;5049804;28;20032;-77
2022/11/28 07:44:10;;;;;;;25.08;11.25;;;;;;;7.34;66.02;101467.47;5049809;28;20025;-77
2022/11/28 07:46:35;;;;;;;23.45;12.05;;;;;;;7.38;65.47;101446.78;5049601;28;20032;-78
2022/11/28 07:49:01;;;;;;;23.45;11.32;;;;;;;7.31;65.26;101459.63;5049392;28;20409;-77
2022/11/28 07:51:30;;;;;;;24.55;12.10;;;;;;;7.37;66.08;101466.47;5049037;28;20029;-77
2022/11/28 07:53:56;;;;;;;21.27;9.68;;;;;;;7.44;65.11;101460.69;5049578;28;20025;-77
2022/11/28 07:56:24;;;;;;;18.90;9.60;;;;;;;7.20;64.48;101424.56;5049780;28;20040;-79
2022/11/28 07:58:50;;;;;;;31.10;8.85;;;;;;;7.19;64.50;101424.66;5049239;28;20464;-79
2022/11/28 08:01:18;;;;;;;16.67;9.25;;;;;;;7.35;64.94;101460.31;5048315;28;20464;-77
2022/11/28 08:03:44;;;;;;;20.45;8.85;;;;;;;7.39;65.13;101465.44;5049180;28;20454;-77
2022/11/28 08:06:10;;;;;;;20.63;9.57;;;;;;;7.44;65.21;101475.88;5049549;28;20025;-78
2022/11/28 08:08:36;;;;;;;20.25;10.02;;;;;;;7.06;65.43;101437.84;5049351;28;20021;-77
2022/11/28 08:11:04;;;;;;;17.95;9.65;;;;;;;7.30;65.91;101473.09;5049593;28;20378;-79
2022/11/28 08:13:30;;;;;;;22.80;10.40;;;;;;;7.17;66.04;101462.19;5049310;28;20033;-77
2022/11/28 08:15:56;;;;;;;20.38;12.10;;;;;;;7.26;65.66;101472.41;5049392;28;20087;-78
2022/11/28 08:18:22;;;;;;;20.33;12.18;;;;;;;7.22;65.81;101470.81;5050980;28;20029;-77
2022/11/28 08:20:47;;;;;;;22.67;10.98;;;;;;;7.07;65.92;101444.91;5058989;28;20021;-77
2022/11/28 08:23:13;;;;;;;22.70;9.95;;;;;;;7.33;66.09;101462.22;5060282;28;20029;-79
2022/11/28 08:25:38;;;;;;;16.40;9.98;;;;;;;7.28;66.21;101456.28;5054851;28;20419;-77
2022/11/28 08:28:04;;;;;;;20.10;9.88;;;;;;;7.30;66.85;101457.91;5053365;28;20037;-77
2022/11/28 08:30:29;;;;;;;25.00;10.55;;;;;;;7.30;66.10;101451.69;5056646;28;20029;-77
2022/11/28 08:32:55;;;;;;;19.27;9.45;;;;;;;7.21;66.50;101453.06;5058112;28;20460;-78
2022/11/28 08:35:20;;;;;;;20.52;9.77;;;;;;;7.30;66.34;101457.91;5053199;28;20031;-79
2022/11/28 08:37:46;;;;;;;17.70;9.98;;;;;;;7.36;66.66;101452.22;5051659;28;20447;-79
2022/11/28 08:40:12;;;;;;;17.25;9.23;;;;;;;7.35;66.91;101466.53;5053159;28;20127;-78
2022/11/28 08:42:37;;;;;;;22.10;10.27;;;;;;;7.26;67.29;101451.00;5050509;28;20120;-77
2022/11/28 08:45:05;;;;;;;29.35;13.95;;;;;;;7.30;67.95;101449.88;5052609;28;20054;-79
2022/11/28 08:47:31;;;;;;;14.30;8.82;;;;;;;7.29;68.37;101448.16;5051982;28;20040;-78
2022/11/28 08:49:56;;;;;;;17.23;10.52;;;;;;;7.27;69.33;101436.69;5052692;28;20057;-78
2022/11/28 08:52:22;;;;;;;15.73;9.55;;;;;;;7.37;69.50;101459.28;5052678;28;20520;-77
2022/11/28 08:54:48;;;;;;;17.10;8.63;;;;;;;7.36;69.11;101470.97;5050357;28;20138;-78
2022/11/28 08:57:13;;;;;;;18.48;9.90;;;;;;;7.40;70.18;101459.13;5052451;28;20539;-77
2022/11/28 08:59:39;;;;;;;18.92;11.00;;;;;;;7.49;69.80;101463.13;5050972;28;20520;-79
2022/11/28 09:02:05;;;;;;;17.17;9.80;;;;;;;7.41;69.95;101428.75;5051198;28;20032;-78
2022/11/28 09:04:30;;;;;;;16.92;10.93;;;;;;;7.54;69.82;101445.00;5052782;28;20029;-78
2022/11/28 09:06:56;;;;;;;19.88;9.98;;;;;;;7.60;69.20;101445.50;5052630;28;20025;-76
2022/11/28 09:09:21;;;;;;;16.88;9.73;;;;;;;7.65;69.07;101431.84;5052424;28;20029;-78
2022/11/28 09:11:47;;;;;;;18.70;11.77;;;;;;;7.68;68.77;101443.25;5052218;28;20114;-77
2022/11/28 09:14:12;;;;;;;15.45;9.25;;;;;;;7.67;69.04;101436.16;5052519;28;20056;-77
2022/11/28 09:16:39;;;;;;;20.27;10.13;;;;;;;7.61;68.88;101436.50;5052643;28;20017;-77
2022/11/28 09:19:05;;;;;;;24.33;11.35;;;;;;;7.58;69.79;101447.38;5050618;28;20076;-78
2022/11/28 09:21:31;;;;;;;21.70;9.80;;;;;;;7.60;69.35;101448.19;5052469;28;20088;-78
2022/11/28 09:23:57;;;;;;;21.35;12.88;;;;;;;7.52;69.98;101436.19;5052078;28;20166;-78
2022/11/28 09:26:24;;;;;;;15.02;9.25;;;;;;;7.45;70.31;101416.94;5059543;28;20074;-77
2022/11/28 09:28:50;;;;;;;14.80;10.15;;;;;;;7.41;70.62;101418.03;5064504;28;20093;-78
2022/11/28 09:31:17;;;;;;;21.30;11.75;;;;;;;7.41;71.34;101417.16;5061882;28;20396;-80
2022/11/28 09:33:43;;;;;;;18.38;9.77;;;;;;;7.33;71.58;101409.59;5051640;28;20025;-78
2022/11/28 09:36:12;;;;;;;16.92;9.50;;;;;;;7.26;70.69;101401.97;5052220;28;20029;-78
2022/11/28 09:38:38;;;;;;;17.05;9.20;;;;;;;7.38;70.61;101398.59;5051522;28;20455;-78
2022/11/28 09:41:33;;;;;;;14.45;8.35;;;;;;;7.45;70.70;101379.47;5051579;28;20025;-78
2022/11/28 09:44:42;;;;;;;14.45;8.80;;;;;;;7.53;70.99;101379.88;5051602;28;20028;-76
2022/11/28 09:47:35;;;;;;;20.73;11.90;;;;;;;7.52;70.21;101369.28;5010803;28;20034;-78
2022/11/28 09:50:09;;;;;;;21.30;9.43;;;;;;;7.55;70.29;101367.25;4951784;29;20055;-78
2022/11/28 09:53:20;;;;;;;15.35;8.68;;;;;;;7.59;70.26;101358.13;4952098;29;20499;-79
2022/11/28 09:55:51;;;;;;;18.63;11.13;;;;;;;7.45;70.40;101338.44;4952272;29;20042;-78
2022/11/28 09:58:54;;;;;;;15.30;8.30;;;;;;;7.59;70.92;101381.34;4957519;29;20035;-79
2022/11/28 10:01:49;;;;;;;20.52;8.77;;;;;;;7.61;70.97;101372.25;4903493;29;20051;-77
2022/11/28 10:05:05;;;;;;;15.05;8.52;;;;;;;7.69;70.54;101371.84;4950888;29;20579;-78
2022/11/28 10:07:45;;;;;;;15.07;8.15;;;;;;;7.58;70.52;101340.31;4893788;29;20052;-77
2022/11/28 10:10:17;;;;;;;22.05;9.57;;;;;;;7.82;70.73;101370.19;4893331;29;20037;-79
2022/11/28 10:13:02;;;;;;;17.35;9.52;;;;;;;7.89;70.78;101355.47;4893446;29;20040;-78
2022/11/28 10:15:40;;;;;;;21.38;9.82;;;;;;;7.92;70.03;101366.00;4837746;29;20102;-77
2022/11/28 10:18:40;;;;;;;19.60;10.32;;;;;;;8.04;70.93;101353.72;4837693;29;20053;-76
2022/11/28 10:21:45;;;;;;;23.35;10.85;;;;;;;8.10;70.43;101353.34;4837877;29;20222;-78
2022/11/28 10:24:17;;;;;;;19.33;8.50;;;;;;;8.10;70.13;101326.56;4885236;29;20123;-77
2022/11/28 10:26:47;;;;;;;18.13;8.40;;;;;;;8.12;70.11;101354.13;4910558;29;20044;-78
2022/11/28 10:29:22;;;;;;;22.25;9.80;;;;;;;8.14;70.14;101349.53;4931177;29;20075;-77
2022/11/28 10:31:51;;;;;;;22.13;10.15;;;;;;;8.18;70.12;101345.72;4932214;29;20038;-78
2022/11/28 10:34:35;;;;;;;21.88;9.68;;;;;;;8.07;70.36;101321.38;4939556;29;20055;-78
2022/11/28 10:37:20;;;;;;;13.93;9.98;;;;;;;8.20;70.66;101341.09;4938209;29;20157;-77
2022/11/28 10:39:47;;;;;;;19.70;11.13;;;;;;;7.96;70.79;101292.56;4916232;29;20043;-78
2022/11/28 10:42:39;;;;;;;27.90;13.38;;;;;;;8.02;71.39;101296.69;4937895;28;20614;-77
2022/11/28 10:45:12;;;;;;;34.78;11.80;;;;;;;8.21;70.82;101337.50;4972078;28;20046;-79
2022/11/28 10:48:08;;;;;;;24.90;12.00;;;;;;;8.18;71.06;101321.59;4971932;28;20042;-77
2022/11/28 10:50:40;;;;;;;25.88;10.80;;;;;;;8.18;71.28;101318.91;4988361;28;20073;-77
2022/11/28 10:53:05;;;;;;;24.40;11.52;;;;;;;8.03;70.77;101282.34;5025661;28;20073;-79
2022/11/28 10:55:55;;;;;;;36.30;12.43;;;;;;;8.22;71.00;101323.16;5050197;28;20037;-79
2022/11/28 10:58:26;;;;;;;30.35;13.55;;;;;;;8.21;71.00;101313.38;5050094;28;20077;-77
2022/11/28 11:00:56;;;;;;;28.83;13.95;;;;;;;8.28;70.70;101297.81;5050325;28;20029;-78
2022/11/28 11:03:28;;;;;;;27.02;11.60;;;;;;;8.29;70.39;101305.75;5050146;28;20087;-78
2022/11/28 11:05:53;;;;;;;31.50;11.32;;;;;;;8.18;70.47;101281.41;5050030;28;20063;-79
2022/11/28 11:08:25;;;;;;;22.92;11.38;;;;;;;8.28;70.19;101308.53;5050126;28;20520;-78
2022/11/28 11:10:56;;;;;;;44.90;13.43;;;;;;;8.28;70.30;101304.03;5050202;28;20025;-76
2022/11/28 11:13:25;;;;;;;21.63;10.73;;;;;;;8.15;70.37;101300.34;5049703;28;20021;-78
2022/11/28 11:16:03;;;;;;;30.65;12.05;;;;;;;8.07;70.65;101289.25;5051422;28;20630;-76
2022/11/28 11:18:30;;;;;;;32.05;12.73;;;;;;;7.97;70.40;101266.63;5055037;28;20089;-78
2022/11/28 11:21:17;;;;;;;28.90;11.20;;;;;;;8.15;70.41;101303.03;5052386;28;20025;-78
2022/11/28 11:23:44;;;;;;;24.60;13.57;;;;;;;8.07;70.40;101305.31;5054550;28;20023;-77
2022/11/28 11:26:40;;;;;;;26.15;12.13;;;;;;;7.99;70.33;101303.09;5050022;28;20033;-77
2022/11/28 11:29:19;;;;;;;26.00;12.70;;;;;;;7.80;71.23;101264.13;5007562;28;20490;-77
2022/11/28 11:31:50;;;;;;;26.40;12.90;;;;;;;7.91;71.37;101317.88;5007894;28;20026;-78
2022/11/28 11:34:17;;;;;;;27.52;12.70;;;;;;;7.68;71.25;101277.25;5008107;28;20046;-77
2022/11/28 11:36:43;;;;;;;37.35;14.13;;;;;;;7.90;71.52;101303.63;5007672;28;20575;-78
2022/11/28 11:39:09;;;;;;;28.08;13.70;;;;;;;7.89;71.44;101293.03;5009352;28;20080;-77